Time;durP1;ratioP1;P1;durP2;ratioP2;P2;SDS_P1;SDS_P2;PMS_P1;PMS_P2;Temp;Humidity;BMP_temperature;BMP_pressure;BME280_temperature;BME280_humidity;BME280_pressure;Samples;Min_cycle;Max_cycle;Signal;HPM_P1;HPM_P2
2021/08/24 00:01:48;;;;;;;1.58;1.48;;;;;;;28.06;38.72;97267.22;5013615;28;20484;-30
2021/08/24 00:04:14;;;;;;;1.65;1.33;;;;;;;28.07;38.58;97274.19;5010351;28;20022;-27
2021/08/24 00:06:39;;;;;;;2.65;1.50;;;;;;;28.09;38.56;97276.75;5008581;28;20033;-27
2021/08/24 00:09:04;;;;;;;2.15;1.40;;;;;;;28.09;38.64;97271.47;5010380;28;20448;-28
2021/08/24 00:11:33;;;;;;;2.20;1.50;;;;;;;28.09;38.59;97269.69;5012191;28;20033;-29
2021/08/24 00:14:03;;;;;;;1.75;1.30;;;;;;;28.07;38.52;97263.66;5007139;28;20055;-29
2021/08/24 00:16:28;;;;;;;2.47;1.38;;;;;;;28.11;38.61;97267.00;5012490;28;20029;-26
2021/08/24 00:18:53;;;;;;;1.55;1.45;;;;;;;28.09;38.43;97261.81;5013407;28;20455;-28
2021/08/24 00:21:19;;;;;;;2.45;1.60;;;;;;;28.12;38.46;97260.78;5008633;28;20029;-26
2021/08/24 00:23:44;;;;;;;2.10;1.23;;;;;;;28.09;38.76;97253.91;5008989;28;20026;-28
2021/08/24 00:26:10;;;;;;;1.35;1.25;;;;;;;28.12;38.42;97261.63;5013005;28;20029;-27
2021/08/24 00:28:35;;;;;;;1.45;1.15;;;;;;;28.12;38.71;97261.63;5011973;28;20570;-26
2021/08/24 00:31:00;;;;;;;4.90;1.60;;;;;;;28.13;38.65;97258.06;5005598;28;20033;-27
2021/08/24 00:33:26;;;;;;;1.55;1.10;;;;;;;28.14;38.68;97264.16;5007423;28;20563;-32
2021/08/24 00:35:51;;;;;;;1.17;1.10;;;;;;;28.14;38.39;97254.47;5010945;28;20036;-25
2021/08/24 00:38:19;;;;;;;1.42;1.30;;;;;;;28.15;38.61;97255.34;5006972;28;20583;-27
2021/08/24 00:40:53;;;;;;;2.25;1.48;;;;;;;28.15;38.60;97261.44;5003730;28;20614;-26
2021/08/24 00:43:18;;;;;;;3.88;1.35;;;;;;;28.16;38.50;97267.56;5004528;28;20064;-29
2021/08/24 00:45:44;;;;;;;2.60;1.02;;;;;;;28.15;38.60;97258.81;5015228;28;20084;-25
2021/08/24 00:48:09;;;;;;;1.25;1.15;;;;;;;28.16;38.57;97263.16;5010760;28;20029;-29
2021/08/24 00:50:41;;;;;;;1.27;1.17;;;;;;;28.16;38.51;97254.41;5013427;28;20034;-29
2021/08/24 00:53:09;;;;;;;1.33;1.23;;;;;;;28.17;38.55;97259.59;4994557;28;20021;-27
2021/08/24 00:55:35;;;;;;;1.38;1.20;;;;;;;28.16;38.52;97247.34;5018854;28;20384;-27
2021/08/24 00:58:04;;;;;;;1.35;1.25;;;;;;;28.18;38.59;97249.88;5021666;28;20484;-28
2021/08/24 01:00:30;;;;;;;1.33;1.10;;;;;;;28.17;38.55;97248.19;5006388;28;20029;-27
2021/08/24 01:03:13;;;;;;;2.85;1.15;;;;;;;28.17;38.43;97251.69;5010894;28;20965;-30
2021/08/24 01:05:38;;;;;;;1.67;1.20;;;;;;;28.18;38.39;97253.38;5013724;28;20035;-28
2021/08/24 01:08:10;;;;;;;1.30;1.20;;;;;;;28.18;38.56;97253.38;5021627;28;20049;-27
2021/08/24 01:10:35;;;;;;;;;;;;;;;28.17;38.57;97243.78;4997615;28;20099;-28
2021/08/24 01:13:14;;;;;;;1.92;1.00;;;;;;;28.18;38.69;97245.47;5007617;28;19928;-23
2021/08/24 01:15:48;;;;;;;1.98;1.05;;;;;;;28.18;38.57;97250.75;5011767;28;20033;-30
2021/08/24 01:18:33;;;;;;;1.33;1.23;;;;;;;28.17;38.51;97254.31;5011117;28;20037;-27
2021/08/24 01:21:30;;;;;;;1.35;1.17;;;;;;;28.18;38.63;97252.53;5014040;28;20072;-27
2021/08/24 01:24:10;;;;;;;1.33;1.20;;;;;;;28.17;38.62;97254.31;5008273;28;20029;-28
2021/08/24 01:26:46;;;;;;;1.20;1.10;;;;;;;28.17;38.62;97249.06;5010575;28;20025;-27
2021/08/24 01:29:48;;;;;;;1.30;1.20;;;;;;;28.16;38.44;97252.63;4995825;28;20116;-27
2021/08/24 01:32:47;;;;;;;1.38;1.10;;;;;;;28.18;38.49;97255.16;5007097;28;20032;-30
2021/08/24 01:35:23;;;;;;;1.95;0.95;;;;;;;28.16;38.60;97252.63;5010939;28;20039;-28
2021/08/24 01:37:52;;;;;;;1.02;0.93;;;;;;;28.18;38.49;97256.00;5006819;28;20410;-27
2021/08/24 01:40:22;;;;;;;1.55;1.05;;;;;;;28.17;38.44;97246.41;5012115;28;20029;-27
2021/08/24 01:42:47;;;;;;;2.03;1.10;;;;;;;28.17;38.66;97254.31;4988014;28;20040;-26
2021/08/24 01:45:18;;;;;;;1.63;1.05;;;;;;;28.17;38.54;97251.69;5007720;28;20495;-24
2021/08/24 01:47:46;;;;;;;2.67;1.20;;;;;;;28.18;38.71;97250.75;5011275;28;20033;-24
2021/08/24 01:50:27;;;;;;;1.33;1.23;;;;;;;28.18;38.77;97244.63;5013361;28;20033;-27
2021/08/24 01:53:08;;;;;;;3.38;1.10;;;;;;;28.18;38.66;97240.19;4991060;28;20107;-27
2021/08/24 01:55:41;;;;;;;1.45;1.00;;;;;;;28.19;38.59;97241.06;5007369;28;20286;-26
2021/08/24 01:58:24;;;;;;;2.80;1.27;;;;;;;28.19;38.66;97243.69;4996465;28;20041;-27
2021/08/24 02:00:53;;;;;;;1.00;0.90;;;;;;;28.18;38.66;97250.75;5003609;28;20021;-27
2021/08/24 02:03:21;;;;;;;1.10;1.00;;;;;;;28.20;38.61;97252.44;5026641;28;21849;-28
2021/08/24 02:05:49;;;;;;;1.05;1.00;;;;;;;28.18;38.45;97250.75;4977671;28;20097;-26
2021/08/24 02:08:37;;;;;;;1.35;1.08;;;;;;;28.19;38.74;97256.88;4998619;28;20135;-29
2021/08/24 02:11:03;;;;;;;2.97;1.27;;;;;;;28.18;38.75;97250.75;4995317;28;20043;-25
2021/08/24 02:13:34;;;;;;;3.08;1.10;;;;;;;28.20;38.67;97257.72;5006482;28;20514;-27
2021/08/24 02:15:59;;;;;;;3.40;1.20;;;;;;;28.20;38.61;97255.06;4998469;28;20033;-26
2021/08/24 02:18:33;;;;;;;1.42;1.10;;;;;;;28.20;38.70;97255.06;5011499;28;20036;-28
2021/08/24 02:21:02;;;;;;;1.88;0.80;;;;;;;28.20;38.59;97252.44;5008493;28;20039;-28
2021/08/24 02:23:28;;;;;;;2.38;1.40;;;;;;;28.21;38.52;97254.13;5007170;28;20029;-27
2021/08/24 02:25:56;;;;;;;2.67;1.20;;;;;;;28.21;38.64;97254.13;4995728;28;20566;-27
2021/08/24 02:28:25;;;;;;;4.05;1.23;;;;;;;28.22;38.67;97255.84;5012731;28;20040;-25
2021/08/24 02:30:58;;;;;;;2.17;1.05;;;;;;;28.22;38.75;97250.59;5002946;28;20025;-28
2021/08/24 02:33:24;;;;;;;1.52;1.05;;;;;;;28.21;38.45;97255.00;4998277;28;20383;-26
2021/08/24 02:35:55;;;;;;;5.90;1.10;;;;;;;28.22;38.66;97245.31;5000921;28;20700;-27
2021/08/24 02:38:21;;;;;;;1.90;1.05;;;;;;;28.22;38.57;97258.50;4998669;28;20034;-29
2021/08/24 02:41:01;;;;;;;1.23;0.90;;;;;;;28.22;38.78;97255.84;5012228;28;20034;-28
2021/08/24 02:43:58;;;;;;;3.22;1.30;;;;;;;28.21;38.71;97243.59;5005972;28;20040;-29
2021/08/24 02:46:27;;;;;;;1.00;0.90;;;;;;;28.22;38.65;97258.50;5005333;28;20079;-27
2021/08/24 02:48:54;;;;;;;2.03;1.40;;;;;;;28.22;38.45;97255.84;5004515;28;20526;-27
2021/08/24 02:51:20;;;;;;;1.08;0.98;;;;;;;28.22;38.44;97255.84;5004225;28;20033;-26
2021/08/24 02:53:55;;;;;;;3.22;1.20;;;;;;;28.21;38.81;97248.84;5015586;28;20451;-27
2021/08/24 02:56:21;;;;;;;7.47;1.10;;;;;;;28.21;38.48;97244.44;5004513;28;20495;-28
2021/08/24 02:58:46;;;;;;;3.20;1.17;;;;;;;28.21;38.57;97243.59;5011638;28;20036;-27
2021/08/24 03:01:12;;;;;;;3.33;1.05;;;;;;;28.21;38.48;97248.84;5010347;28;20025;-29
2021/08/24 03:03:37;;;;;;;1.90;1.08;;;;;;;28.22;38.56;97245.31;5009330;28;20021;-30
2021/08/24 03:06:03;;;;;;;2.55;1.05;;;;;;;28.21;38.47;97243.59;5008325;28;20144;-26
2021/08/24 03:08:28;;;;;;;1.75;1.27;;;;;;;28.21;38.59;97238.31;5017547;28;20048;-27
2021/08/24 03:10:54;;;;;;;1.20;0.98;;;;;;;28.22;38.57;97250.59;5017046;28;20029;-27
2021/08/24 03:13:31;;;;;;;2.28;1.33;;;;;;;28.21;38.53;97248.84;4992196;28;20033;-30
2021/08/24 03:15:56;;;;;;;1.13;1.02;;;;;;;28.22;38.45;97247.94;5012692;28;20091;-25
2021/08/24 03:18:38;;;;;;;1.35;1.13;;;;;;;28.20;38.42;97236.63;5008883;28;20075;-28
2021/08/24 03:21:05;;;;;;;2.15;1.10;;;;;;;28.21;38.44;97243.59;5010364;28;20033;-28
2021/08/24 03:23:31;;;;;;;1.42;0.98;;;;;;;28.21;38.64;97243.59;5010201;28;20057;-28
2021/08/24 03:25:56;;;;;;;1.38;1.00;;;;;;;28.20;38.43;97247.16;5015673;28;21042;-27
2021/08/24 03:28:22;;;;;;;1.50;0.95;;;;;;;28.21;38.57;97243.59;4998823;28;20029;-27
2021/08/24 03:30:50;;;;;;;3.20;1.23;;;;;;;28.20;38.37;97241.91;5012058;28;20967;-30
2021/08/24 03:33:19;;;;;;;2.08;1.13;;;;;;;28.16;38.40;97241.22;5016337;28;20116;-27
2021/08/24 03:35:44;;;;;;;1.85;1.02;;;;;;;28.20;38.46;97244.53;5013452;28;20040;-26
2021/08/24 03:38:10;;;;;;;1.00;0.90;;;;;;;28.21;38.50;97243.59;5009645;28;20033;-30
2021/08/24 03:40:35;;;;;;;1.80;1.20;;;;;;;28.17;38.50;97249.06;5014698;28;20029;-28
2021/08/24 03:43:01;;;;;;;2.92;1.02;;;;;;;28.18;38.44;97253.38;5009473;28;20298;-28
2021/08/24 03:45:26;;;;;;;2.15;1.17;;;;;;;28.20;38.44;97252.44;5012919;28;20029;-28
2021/08/24 03:47:52;;;;;;;3.13;1.10;;;;;;;28.20;38.60;97245.41;5005896;28;20017;-27
2021/08/24 03:50:17;;;;;;;2.05;1.10;;;;;;;28.21;38.47;97256.75;5012198;28;20401;-26
2021/08/24 03:52:43;;;;;;;1.05;0.90;;;;;;;28.20;38.55;97249.81;5014839;28;20057;-26
2021/08/24 03:55:08;;;;;;;1.42;0.73;;;;;;;28.20;38.48;97247.16;5015965;28;20033;-28
2021/08/24 03:57:34;;;;;;;1.45;0.80;;;;;;;28.20;38.37;97260.34;5010175;28;20033;-26
2021/08/24 03:59:59;;;;;;;3.25;1.00;;;;;;;28.20;38.32;97257.72;5009030;28;20033;-27
2021/08/24 04:02:27;;;;;;;1.65;0.88;;;;;;;28.20;38.47;97266.47;5009965;28;20040;-28
2021/08/24 04:04:52;;;;;;;1.52;1.00;;;;;;;28.20;38.33;97270.88;5015795;28;20061;-28
2021/08/24 04:07:18;;;;;;;1.60;0.98;;;;;;;28.20;38.45;97262.97;5010380;28;20116;-25
2021/08/24 04:09:43;;;;;;;1.65;0.85;;;;;;;28.21;38.39;97264.66;5015364;28;20033;-27
2021/08/24 04:12:09;;;;;;;1.33;0.90;;;;;;;28.21;38.41;97259.41;5010270;28;20025;-30
2021/08/24 04:14:34;;;;;;;1.15;1.05;;;;;;;28.20;38.48;97273.50;5032066;28;20299;-27
2021/08/24 04:16:59;;;;;;;2.65;1.30;;;;;;;28.19;38.70;97272.69;5010572;28;20033;-25
2021/08/24 04:19:25;;;;;;;2.47;1.15;;;;;;;28.20;38.60;97268.25;5014221;28;20025;-29
2021/08/24 04:21:50;;;;;;;2.72;1.20;;;;;;;28.19;38.48;97270.06;5012791;28;20032;-29
2021/08/24 04:24:16;;;;;;;1.38;1.00;;;;;;;28.19;38.48;97267.41;5010607;28;20034;-25
2021/08/24 04:26:41;;;;;;;2.47;1.10;;;;;;;28.18;38.55;97271.81;5010782;28;20197;-31
2021/08/24 04:29:06;;;;;;;2.33;1.10;;;;;;;28.14;38.50;97258.88;5010675;28;20038;-24
2021/08/24 04:31:34;;;;;;;1.42;0.90;;;;;;;28.18;38.42;97271.81;5004590;28;20033;-29
2021/08/24 04:33:59;;;;;;;1.10;1.00;;;;;;;28.18;38.61;97270.97;5011875;28;20124;-28
2021/08/24 04:36:24;;;;;;;1.30;0.80;;;;;;;28.17;38.29;97264.88;5008790;28;20040;-27
2021/08/24 04:38:50;;;;;;;1.52;1.23;;;;;;;28.18;38.24;97278.88;5012436;28;20036;-27
2021/08/24 04:41:15;;;;;;;1.10;0.90;;;;;;;28.16;38.44;97278.97;5012891;28;20029;-26
2021/08/24 04:43:41;;;;;;;1.17;1.00;;;;;;;28.17;38.56;97278.03;5007469;28;20040;-25
2021/08/24 04:46:06;;;;;;;1.33;1.10;;;;;;;28.17;38.51;97275.41;5006233;28;20025;-28
2021/08/24 04:48:32;;;;;;;1.33;1.00;;;;;;;28.17;38.51;97280.66;5010997;28;20033;-26
2021/08/24 04:50:57;;;;;;;1.10;0.98;;;;;;;28.18;38.40;97276.22;5010326;28;20821;-26
2021/08/24 04:53:24;;;;;;;1.45;1.23;;;;;;;28.18;38.38;97282.38;5005135;28;20029;-26
2021/08/24 04:55:50;;;;;;;1.75;1.05;;;;;;;28.17;38.32;97278.03;5012196;28;20109;-25
2021/08/24 04:58:15;;;;;;;1.13;0.90;;;;;;;28.17;38.40;97285.94;5010012;28;20040;-26
2021/08/24 05:00:41;;;;;;;3.15;1.23;;;;;;;28.16;38.30;97284.25;5006240;28;20033;-27
2021/08/24 05:03:06;;;;;;;1.63;1.00;;;;;;;28.16;38.37;97294.78;5010150;28;20052;-27
2021/08/24 05:05:31;;;;;;;1.48;1.00;;;;;;;28.16;38.41;97289.53;5008938;28;20017;-28
2021/08/24 05:07:57;;;;;;;2.05;1.10;;;;;;;28.16;38.33;97289.53;5011103;28;20518;-27
2021/08/24 05:10:22;;;;;;;3.72;1.30;;;;;;;28.16;38.31;97294.78;5009722;28;20033;-27
2021/08/24 05:12:48;;;;;;;2.38;1.20;;;;;;;28.16;38.20;97292.16;5009350;28;20033;-31
2021/08/24 05:15:13;;;;;;;1.65;1.05;;;;;;;28.16;38.14;97296.56;5012959;28;20033;-27
2021/08/24 05:17:39;;;;;;;1.25;1.00;;;;;;;28.16;38.26;97300.06;5012189;28;20057;-27
2021/08/24 05:20:05;;;;;;;2.42;1.20;;;;;;;28.15;38.17;97300.97;5015813;28;20026;-26
2021/08/24 05:22:30;;;;;;;1.60;0.90;;;;;;;28.15;38.25;97298.34;5007031;28;20112;-26
2021/08/24 05:24:56;;;;;;;3.30;1.00;;;;;;;28.15;38.14;97306.25;4996557;28;20807;-26
2021/08/24 05:27:21;;;;;;;2.15;1.13;;;;;;;28.16;38.29;97302.69;5009599;28;20563;-24
2021/08/24 05:29:47;;;;;;;3.63;1.42;;;;;;;28.14;38.16;97301.91;5006459;28;20137;-25
2021/08/24 05:32:12;;;;;;;1.88;1.10;;;;;;;28.14;38.19;97301.91;5023625;28;20022;-25
2021/08/24 05:34:38;;;;;;;3.25;1.23;;;;;;;28.14;37.74;97307.19;5011661;28;20640;-28
2021/08/24 05:37:04;;;;;;;4.05;1.20;;;;;;;28.12;37.86;97305.56;5007756;28;20033;-27
2021/08/24 05:39:30;;;;;;;1.85;1.02;;;;;;;28.12;37.74;97303.78;5009201;28;20595;-26
2021/08/24 05:41:55;;;;;;;2.30;1.17;;;;;;;28.11;37.79;97294.16;5007858;28;20048;-30
2021/08/24 05:44:21;;;;;;;2.58;1.38;;;;;;;28.11;37.64;97293.34;5013185;28;20025;-24
2021/08/24 05:46:46;;;;;;;2.67;1.40;;;;;;;28.10;37.77;97302.19;5006331;28;20033;-26
2021/08/24 05:49:12;;;;;;;2.38;1.30;;;;;;;28.09;37.63;97296.03;5006520;28;20036;-25
2021/08/24 05:51:37;;;;;;;5.18;1.20;;;;;;;28.09;37.65;97298.69;5004766;28;20025;-31
2021/08/24 05:54:03;;;;;;;3.65;1.33;;;;;;;28.09;37.55;97298.69;5010340;28;20036;-27
2021/08/24 05:56:29;;;;;;;3.00;1.33;;;;;;;28.09;37.75;97300.44;5009327;28;21129;-27
2021/08/24 05:58:54;;;;;;;5.30;1.52;;;;;;;28.09;37.60;97296.03;5011295;28;20022;-26
2021/08/24 06:01:27;;;;;;;6.22;1.45;;;;;;;28.09;37.78;97296.03;5005027;28;20724;-25
2021/08/24 06:03:53;;;;;;;5.80;1.40;;;;;;;28.09;37.60;97295.19;5000366;28;20091;-27
2021/08/24 06:06:39;;;;;;;2.10;1.42;;;;;;;28.09;37.58;97297.81;4992899;28;20042;-28
2021/08/24 06:09:05;;;;;;;5.68;1.88;;;;;;;28.09;37.81;97298.69;5002097;28;20260;-25
2021/08/24 06:11:36;;;;;;;2.38;1.40;;;;;;;28.09;37.59;97309.22;5003630;28;21088;-27
2021/08/24 06:14:04;;;;;;;5.68;1.60;;;;;;;28.09;37.78;97303.94;5007489;28;20128;-28
2021/08/24 06:16:30;;;;;;;5.60;2.00;;;;;;;28.06;37.56;97309.38;5008145;28;20018;-25
2021/08/24 06:18:55;;;;;;;5.10;1.88;;;;;;;28.09;37.75;97311.84;5005261;28;20498;-27
2021/08/24 06:21:21;;;;;;;2.83;1.50;;;;;;;28.08;37.54;97302.25;5005258;28;20108;-29
2021/08/24 06:23:47;;;;;;;7.57;1.77;;;;;;;28.09;37.45;97297.81;5009895;28;20408;-27
2021/08/24 06:26:12;;;;;;;2.78;1.33;;;;;;;28.09;37.65;97303.94;5006700;28;20048;-25
2021/08/24 06:28:37;;;;;;;2.47;1.45;;;;;;;28.08;37.75;97297.00;5006896;28;20029;-28
2021/08/24 06:31:03;;;;;;;4.85;1.88;;;;;;;28.09;37.56;97297.81;4999162;28;20033;-26
2021/08/24 06:33:31;;;;;;;3.85;1.67;;;;;;;28.08;37.50;97291.72;4996903;28;22578;-26
2021/08/24 06:35:56;;;;;;;4.85;1.67;;;;;;;28.09;37.58;97303.94;5006582;28;20130;-27
2021/08/24 06:38:22;;;;;;;8.25;2.03;;;;;;;28.09;37.63;97301.31;5003711;28;20029;-28
2021/08/24 06:40:47;;;;;;;3.47;1.48;;;;;;;28.09;37.55;97301.31;5003113;28;20044;-29
2021/08/24 06:43:14;;;;;;;27.35;3.05;;;;;;;28.08;37.36;97302.25;5008078;28;20040;-27
2021/08/24 06:45:40;;;;;;;15.45;3.10;;;;;;;28.04;36.69;97296.28;5014560;28;20063;-28
2021/08/24 06:48:05;;;;;;;10.70;3.67;;;;;;;27.99;35.80;97300.13;5008107;28;20060;-25
2021/08/24 06:50:31;;;;;;;9.70;3.80;;;;;;;27.89;34.89;97297.97;5011953;28;20025;-27
2021/08/24 06:52:57;;;;;;;8.90;4.32;;;;;;;27.78;35.09;97295.94;5008442;28;20044;-26
2021/08/24 06:55:25;;;;;;;10.00;3.20;;;;;;;27.65;34.78;97301.00;4992127;28;20034;-24
2021/08/24 06:57:51;;;;;;;7.53;3.42;;;;;;;27.56;34.86;97296.19;5008863;28;20025;-27
2021/08/24 07:00:19;;;;;;;6.97;3.33;;;;;;;27.46;34.83;97289.72;5010098;28;20037;-28
2021/08/24 07:02:44;;;;;;;5.32;3.25;;;;;;;27.37;34.94;97297.16;5011596;28;20140;-25
2021/08/24 07:05:10;;;;;;;5.00;2.95;;;;;;;27.28;35.08;97292.34;5005971;28;20047;-25
2021/08/24 07:07:36;;;;;;;5.63;3.03;;;;;;;27.22;35.16;97301.41;5009571;28;20030;-25
2021/08/24 07:10:03;;;;;;;7.97;3.20;;;;;;;27.15;34.90;97305.28;5007621;28;20060;-25
2021/08/24 07:12:28;;;;;;;5.97;2.80;;;;;;;27.10;34.87;97307.28;5003018;28;20044;-28
2021/08/24 07:14:53;;;;;;;9.27;3.15;;;;;;;27.05;35.62;97307.53;5006984;28;20026;-30
2021/08/24 07:17:20;;;;;;;5.55;2.90;;;;;;;27.04;35.24;97300.56;5007008;28;20705;-28
2021/08/24 07:19:45;;;;;;;5.65;3.33;;;;;;;26.98;34.90;97303.50;5007274;28;20056;-26
2021/08/24 07:22:11;;;;;;;6.90;3.33;;;;;;;26.94;34.62;97301.91;5012945;28;20759;-29
2021/08/24 07:24:36;;;;;;;8.57;3.53;;;;;;;26.87;34.58;97296.13;5010070;28;20036;-27
2021/08/24 07:27:02;;;;;;;11.10;3.50;;;;;;;26.80;34.76;97298.19;5008379;28;20080;-26
2021/08/24 07:29:27;;;;;;;10.10;3.20;;;;;;;26.73;34.88;97296.78;5012262;28;20025;-29
2021/08/24 07:31:53;;;;;;;7.88;2.92;;;;;;;26.67;35.02;97295.34;5007414;28;20056;-28
2021/08/24 07:34:18;;;;;;;16.08;3.53;;;;;;;26.60;34.87;97297.41;5007769;28;20487;-29
2021/08/24 07:36:44;;;;;;;4.32;3.20;;;;;;;26.56;35.13;97293.22;5010538;28;20099;-25
2021/08/24 07:39:09;;;;;;;3.90;2.63;;;;;;;26.52;35.08;97294.28;5007550;28;21100;-30
2021/08/24 07:41:35;;;;;;;5.32;2.83;;;;;;;26.48;35.18;97295.38;5008139;28;20083;-27
2021/08/24 07:44:00;;;;;;;4.50;2.80;;;;;;;26.45;35.18;97299.00;5008308;28;20041;-27
2021/08/24 07:46:26;;;;;;;4.35;3.00;;;;;;;26.43;35.05;97300.00;5008422;28;20084;-27
2021/08/24 07:48:51;;;;;;;4.57;2.70;;;;;;;26.39;35.03;97285.28;5007403;28;20444;-27
2021/08/24 07:51:20;;;;;;;5.05;2.63;;;;;;;26.35;35.06;97287.19;5006150;28;20523;-28
2021/08/24 07:53:46;;;;;;;5.55;2.95;;;;;;;26.29;34.83;97298.88;5007365;28;20025;-26
2021/08/24 07:56:11;;;;;;;6.18;3.03;;;;;;;26.26;34.94;97304.25;5015395;28;20286;-28
2021/08/24 07:58:36;;;;;;;4.82;2.70;;;;;;;26.21;34.71;97298.34;5007444;28;20041;-30
2021/08/24 08:01:02;;;;;;;4.30;2.80;;;;;;;26.16;34.92;97298.53;5006192;28;20048;-26
2021/08/24 08:03:27;;;;;;;3.80;2.60;;;;;;;26.14;35.05;97300.41;5008201;28;20032;-27
2021/08/24 08:05:53;;;;;;;5.30;2.78;;;;;;;26.12;35.13;97301.41;5006977;28;20032;-27
2021/08/24 08:08:18;;;;;;;4.57;3.00;;;;;;;26.09;35.22;97303.25;5007684;28;20060;-27
2021/08/24 08:10:43;;;;;;;4.32;2.60;;;;;;;26.07;35.02;97314.75;5007773;28;20080;-27
2021/08/24 08:13:09;;;;;;;5.32;2.92;;;;;;;26.03;35.21;97314.03;5009062;28;20360;-31
2021/08/24 08:15:34;;;;;;;4.68;2.72;;;;;;;26.00;35.06;97316.78;5008458;28;20029;-25
2021/08/24 08:18:01;;;;;;;4.95;2.72;;;;;;;25.96;35.24;97307.34;5005073;28;20040;-28
2021/08/24 08:20:26;;;;;;;4.30;3.08;;;;;;;25.93;35.32;97312.75;5006273;28;20033;-29
2021/08/24 08:22:52;;;;;;;3.88;3.00;;;;;;;25.90;35.27;97316.34;5008220;28;20076;-30
2021/08/24 08:25:17;;;;;;;4.28;2.45;;;;;;;25.87;35.38;97307.78;5006148;28;20034;-29
2021/08/24 08:27:43;;;;;;;4.15;2.67;;;;;;;25.87;35.28;97319.13;5004072;28;22577;-28
2021/08/24 08:30:09;;;;;;;5.38;2.88;;;;;;;25.88;35.48;97319.97;5011685;28;21256;-27
2021/08/24 08:32:36;;;;;;;4.72;3.05;;;;;;;25.87;35.33;97319.13;5009204;28;20064;-27
2021/08/24 08:35:01;;;;;;;6.57;3.10;;;;;;;25.86;35.38;97319.19;4994526;28;20029;-28
2021/08/24 08:37:27;;;;;;;5.32;3.05;;;;;;;25.87;35.53;97320.91;5007076;28;20029;-27
2021/08/24 08:39:52;;;;;;;6.28;3.20;;;;;;;25.88;35.71;97315.59;5006207;28;20045;-28
2021/08/24 08:42:52;;;;;;;5.82;3.03;;;;;;;25.89;35.50;97319.91;5008734;28;20048;-29
2021/08/24 08:45:41;;;;;;;5.03;3.30;;;;;;;25.87;35.39;97320.91;5008418;28;20021;-27
2021/08/24 08:48:29;;;;;;;4.57;2.92;;;;;;;25.85;35.51;97317.50;5007806;28;20033;-28
2021/08/24 08:51:16;;;;;;;6.40;2.95;;;;;;;25.85;35.62;97320.13;5007562;28;20322;-29
2021/08/24 08:54:08;;;;;;;10.63;2.60;;;;;;;25.86;35.68;97320.06;4993940;28;20044;-27
2021/08/24 08:56:59;;;;;;;4.70;2.72;;;;;;;25.90;35.80;97320.78;5011867;28;20045;-27
2021/08/24 08:59:27;;;;;;;8.13;3.00;;;;;;;25.96;35.66;97312.59;5006874;28;20029;-28
2021/08/24 09:02:22;;;;;;;5.55;3.30;;;;;;;26.01;35.63;97310.59;5009255;28;20021;-27
2021/08/24 09:04:47;;;;;;;8.20;2.90;;;;;;;26.09;35.49;97313.75;4984315;28;20045;-27
2021/08/24 09:07:28;;;;;;;5.97;2.53;;;;;;;26.16;35.43;97316.09;4990529;28;20029;-27
2021/08/24 09:09:53;;;;;;;7.32;2.40;;;;;;;26.21;35.65;97311.47;5006808;28;20029;-25
2021/08/24 09:12:19;;;;;;;6.10;2.55;;;;;;;26.26;35.64;97309.53;4994873;28;20144;-27
2021/08/24 09:14:48;;;;;;;7.50;2.67;;;;;;;26.32;35.70;97305.75;4989411;28;20378;-23
2021/08/24 09:17:24;;;;;;;6.38;2.80;;;;;;;26.36;35.75;97299.44;5005726;28;20036;-28
2021/08/24 09:20:06;;;;;;;4.85;2.72;;;;;;;26.41;35.88;97307.94;5005974;28;20026;-26
2021/08/24 09:22:32;;;;;;;4.65;2.20;;;;;;;26.47;35.67;97306.81;5009235;28;20029;-26
2021/08/24 09:24:57;;;;;;;3.95;2.30;;;;;;;26.52;35.77;97315.31;5009686;28;20033;-28
2021/08/24 09:27:26;;;;;;;6.20;2.45;;;;;;;26.55;35.68;97309.06;5009181;28;20453;-28
2021/08/24 09:29:51;;;;;;;6.53;2.88;;;;;;;26.60;35.82;97307.06;5006160;28;20033;-25
2021/08/24 09:32:19;;;;;;;5.78;2.70;;;;;;;26.63;35.87;97304.28;5006249;28;20061;-25
2021/08/24 09:34:46;;;;;;;7.57;2.38;;;;;;;26.68;35.82;97311.94;5004504;28;20094;-25
2021/08/24 09:37:17;;;;;;;5.68;2.30;;;;;;;26.71;35.92;97309.16;5011813;28;20470;-26
2021/08/24 09:39:55;;;;;;;8.80;2.65;;;;;;;26.75;35.92;97310.72;5012137;28;20027;-27
2021/08/24 09:42:47;;;;;;;8.43;2.45;;;;;;;26.78;35.92;97307.09;5011906;28;20030;-29
2021/08/24 09:45:18;;;;;;;;;;;;;;;26.81;35.95;97312.22;5010168;28;20112;-28
2021/08/24 09:47:45;;;;;;;6.60;2.58;;;;;;;26.84;36.03;97304.16;5016064;28;19917;-25
2021/08/24 09:50:14;;;;;;;7.20;2.20;;;;;;;26.84;36.01;97310.28;4996046;28;20026;-26
2021/08/24 09:52:39;;;;;;;6.18;2.42;;;;;;;26.87;36.08;97304.88;5013672;28;20522;-26
2021/08/24 09:55:08;;;;;;;5.00;2.55;;;;;;;26.88;35.90;97311.81;5016278;28;20029;-28
2021/08/24 09:57:37;;;;;;;9.23;2.28;;;;;;;26.90;36.12;97313.50;4995026;28;20037;-26
2021/08/24 10:00:08;;;;;;;5.75;2.50;;;;;;;26.93;36.11;97313.38;5034644;28;20037;-27
2021/08/24 10:02:44;;;;;;;5.82;2.63;;;;;;;26.95;36.06;97311.53;5029557;28;20021;-27
2021/08/24 10:05:33;;;;;;;10.93;2.47;;;;;;;26.93;36.05;97294.97;5018055;28;20029;-27
2021/08/24 10:08:01;;;;;;;5.50;2.30;;;;;;;26.99;35.99;97305.19;5012860;28;20033;-30
2021/08/24 10:10:35;;;;;;;3.85;2.10;;;;;;;27.01;36.13;97313.88;5015612;28;20025;-28
2021/08/24 10:13:40;;;;;;;5.10;1.95;;;;;;;27.03;36.15;97308.53;5015262;28;20021;-29
2021/08/24 10:16:09;;;;;;;5.93;2.05;;;;;;;27.05;35.96;97315.44;5011834;28;20147;-26
2021/08/24 10:18:35;;;;;;;4.68;2.20;;;;;;;27.07;36.16;97315.31;5008128;28;20034;-24
2021/08/24 10:21:11;;;;;;;2.88;1.90;;;;;;;27.08;36.10;97307.34;5011750;28;20034;-27
2021/08/24 10:23:49;;;;;;;4.35;1.90;;;;;;;27.09;36.17;97309.09;4993907;28;20038;-26
2021/08/24 10:26:23;;;;;;;3.85;2.10;;;;;;;27.11;36.06;97307.22;5006587;28;20108;-28
2021/08/24 10:28:50;;;;;;;5.53;2.63;;;;;;;27.13;36.03;97305.38;5011185;28;20522;-27
2021/08/24 10:31:36;;;;;;;5.47;2.17;;;;;;;27.16;36.09;97306.13;4995373;28;20037;-28
2021/08/24 10:34:26;;;;;;;4.18;2.25;;;;;;;27.17;35.97;97297.31;5009899;28;20470;-28
2021/08/24 10:36:51;;;;;;;4.25;2.17;;;;;;;27.19;36.02;97309.44;5009106;28;20589;-25
2021/08/24 10:39:22;;;;;;;3.55;2.15;;;;;;;27.21;35.99;97317.28;5011248;28;20029;-26
2021/08/24 10:41:55;;;;;;;7.32;2.15;;;;;;;27.24;36.12;97322.38;5010842;28;20919;-28
2021/08/24 10:44:24;;;;;;;5.93;2.05;;;;;;;27.24;36.12;97312.69;5010008;28;20025;-26
2021/08/24 10:46:58;;;;;;;3.35;2.05;;;;;;;27.26;36.18;97310.84;5010248;28;20029;-28
2021/08/24 10:49:23;;;;;;;4.35;2.08;;;;;;;27.29;36.13;97315.09;4995176;28;20039;-25
2021/08/24 10:51:52;;;;;;;3.25;1.90;;;;;;;27.30;36.11;97310.69;5008435;28;20029;-26
2021/08/24 10:54:34;;;;;;;3.22;1.80;;;;;;;27.30;36.20;97316.81;5006563;28;20432;-27
2021/08/24 10:57:27;;;;;;;3.83;2.10;;;;;;;27.33;36.25;97316.66;5012465;28;20080;-28
2021/08/24 11:00:25;;;;;;;6.38;1.70;;;;;;;27.35;36.28;97313.94;5008107;28;20489;-25
2021/08/24 11:03:06;;;;;;;2.92;1.90;;;;;;;27.37;36.19;97320.84;5025671;28;20033;-28
2021/08/24 11:05:58;;;;;;;1.73;1.60;;;;;;;27.38;36.34;97316.41;5009119;28;20091;-28
2021/08/24 11:08:34;;;;;;;4.68;1.90;;;;;;;27.38;36.13;97314.63;4991613;28;20033;-24
2021/08/24 11:11:15;;;;;;;3.13;2.00;;;;;;;27.40;36.35;97317.19;5023514;28;20089;-28
2021/08/24 11:14:03;;;;;;;3.10;2.05;;;;;;;27.41;36.20;97315.41;5009336;28;20101;-24
2021/08/24 11:16:49;;;;;;;3.05;1.83;;;;;;;27.43;36.16;97324.06;5012516;28;20836;-28
2021/08/24 11:19:39;;;;;;;3.75;2.20;;;;;;;27.44;36.17;97326.63;4994341;28;20039;-29
2021/08/24 11:22:30;;;;;;;3.13;1.70;;;;;;;27.44;36.34;97334.53;5010788;28;20030;-27
2021/08/24 11:25:01;;;;;;;3.25;1.52;;;;;;;27.44;36.44;97318.72;5011203;28;20041;-25
2021/08/24 11:27:56;;;;;;;4.30;2.08;;;;;;;27.43;36.42;97311.78;5012786;28;20038;-28
2021/08/24 11:30:27;;;;;;;2.78;1.80;;;;;;;27.45;36.48;97314.31;5012591;28;20033;-27
2021/08/24 11:32:56;;;;;;;3.08;1.90;;;;;;;27.46;36.28;97324.75;5011609;28;20025;-27
2021/08/24 11:35:24;;;;;;;3.88;1.73;;;;;;;27.47;36.40;97328.25;5008198;28;20026;-27
2021/08/24 11:37:54;;;;;;;3.10;1.83;;;;;;;27.45;36.33;97327.47;4997679;28;20053;-26
2021/08/24 11:40:34;;;;;;;5.43;2.22;;;;;;;27.48;36.16;97332.56;5006359;28;20021;-29
2021/08/24 11:43:00;;;;;;;4.53;2.45;;;;;;;27.46;35.40;97337.09;4992847;28;20025;-27
2021/08/24 11:45:48;;;;;;;3.88;2.25;;;;;;;27.42;35.28;97335.53;4998122;28;20400;-28
2021/08/24 11:48:37;;;;;;;3.42;2.20;;;;;;;27.36;35.30;97332.28;4998941;28;20064;-28